sensor_id;sensor_type;location;lat;lon;timestamp;temperature;humidity
21459;DHT22;10891;49.350;19.386;2022-09-09T00:02:18;16.40;99.90
21459;DHT22;10891;49.350;19.386;2022-09-09T00:04:53;16.30;99.90
21459;DHT22;10891;49.350;19.386;2022-09-09T00:07:27;16.20;99.90
21459;DHT22;10891;49.350;19.386;2022-09-09T00:10:04;16.20;99.90
21459;DHT22;10891;49.350;19.386;2022-09-09T00:12:41;16.10;99.90
21459;DHT22;10891;49.350;19.386;2022-09-09T00:15:13;16.10;99.90
21459;DHT22;10891;49.350;19.386;2022-09-09T00:17:45;16.10;99.90
21459;DHT22;10891;49.350;19.386;2022-09-09T00:20:19;16.10;99.90
21459;DHT22;10891;49.350;19.386;2022-09-09T00:22:55;16.10;99.90
21459;DHT22;10891;49.350;19.386;2022-09-09T00:25:28;16.10;99.90
21459;DHT22;10891;49.350;19.386;2022-09-09T00:27:56;16.10;99.90
21459;DHT22;10891;49.350;19.386;2022-09-09T00:30:25;16.10;99.90
21459;DHT22;10891;49.350;19.386;2022-09-09T00:32:55;16.10;99.90
21459;DHT22;10891;49.350;19.386;2022-09-09T00:35:27;16.20;99.90
21459;DHT22;10891;49.350;19.386;2022-09-09T00:38:00;16.20;99.90
21459;DHT22;10891;49.350;19.386;2022-09-09T00:40:32;16.30;99.90
21459;DHT22;10891;49.350;19.386;2022-09-09T00:46:10;16.30;99.90
21459;DHT22;10891;49.350;19.386;2022-09-09T00:48:47;16.30;99.90
21459;DHT22;10891;49.350;19.386;2022-09-09T00:51:22;16.30;99.90
21459;DHT22;10891;49.350;19.386;2022-09-09T00:54:07;16.30;99.90
21459;DHT22;10891;49.350;19.386;2022-09-09T00:56:38;16.30;99.90
21459;DHT22;10891;49.350;19.386;2022-09-09T00:59:21;16.20;99.90
21459;DHT22;10891;49.350;19.386;2022-09-09T01:01:51;16.20;99.90
21459;DHT22;10891;49.350;19.386;2022-09-09T01:04:22;16.20;99.90
21459;DHT22;10891;49.350;19.386;2022-09-09T01:06:58;16.20;99.90
21459;DHT22;10891;49.350;19.386;2022-09-09T01:09:32;16.00;99.90
21459;DHT22;10891;49.350;19.386;2022-09-09T01:12:07;15.90;99.90
21459;DHT22;10891;49.350;19.386;2022-09-09T01:14:41;15.80;99.90
21459;DHT22;10891;49.350;19.386;2022-09-09T01:17:14;15.70;99.90
21459;DHT22;10891;49.350;19.386;2022-09-09T01:19:55;15.60;99.90
21459;DHT22;10891;49.350;19.386;2022-09-09T01:22:33;15.80;99.90
21459;DHT22;10891;49.350;19.386;2022-09-09T01:25:19;15.90;99.90
21459;DHT22;10891;49.350;19.386;2022-09-09T01:27:51;15.90;99.90
21459;DHT22;10891;49.350;19.386;2022-09-09T01:30:19;16.00;99.90
21459;DHT22;10891;49.350;19.386;2022-09-09T01:32:49;16.00;99.90
21459;DHT22;10891;49.350;19.386;2022-09-09T01:35:26;16.00;99.90
21459;DHT22;10891;49.350;19.386;2022-09-09T01:37:56;15.90;99.90
21459;DHT22;10891;49.350;19.386;2022-09-09T01:40:23;15.80;99.90
21459;DHT22;10891;49.350;19.386;2022-09-09T01:42:52;15.60;99.90
21459;DHT22;10891;49.350;19.386;2022-09-09T01:45:19;15.50;99.90
21459;DHT22;10891;49.350;19.386;2022-09-09T01:47:48;15.40;99.90
21459;DHT22;10891;49.350;19.386;2022-09-09T01:50:16;15.30;99.90
21459;DHT22;10891;49.350;19.386;2022-09-09T01:52:44;15.20;99.90
21459;DHT22;10891;49.350;19.386;2022-09-09T01:55:12;15.10;99.90
21459;DHT22;10891;49.350;19.386;2022-09-09T01:57:44;15.10;99.90
21459;DHT22;10891;49.350;19.386;2022-09-09T02:00:16;15.10;99.90
21459;DHT22;10891;49.350;19.386;2022-09-09T02:02:48;15.10;99.90
21459;DHT22;10891;49.350;19.386;2022-09-09T02:05:27;15.20;99.90
21459;DHT22;10891;49.350;19.386;2022-09-09T02:08:00;15.20;99.90
21459;DHT22;10891;49.350;19.386;2022-09-09T02:10:32;15.30;99.90
21459;DHT22;10891;49.350;19.386;2022-09-09T02:13:02;15.30;99.90
21459;DHT22;10891;49.350;19.386;2022-09-09T02:15:34;15.30;99.90
21459;DHT22;10891;49.350;19.386;2022-09-09T02:18:05;15.40;99.90
21459;DHT22;10891;49.350;19.386;2022-09-09T02:20:35;15.40;99.90
21459;DHT22;10891;49.350;19.386;2022-09-09T02:23:04;15.50;99.90
21459;DHT22;10891;49.350;19.386;2022-09-09T02:25:33;15.50;99.90
21459;DHT22;10891;49.350;19.386;2022-09-09T02:28:04;15.50;99.90
21459;DHT22;10891;49.350;19.386;2022-09-09T02:30:34;15.50;99.90
21459;DHT22;10891;49.350;19.386;2022-09-09T02:33:04;15.60;99.90
21459;DHT22;10891;49.350;19.386;2022-09-09T02:35:32;15.70;99.90
21459;DHT22;10891;49.350;19.386;2022-09-09T02:38:07;15.60;99.90
21459;DHT22;10891;49.350;19.386;2022-09-09T02:40:34;15.60;99.90
21459;DHT22;10891;49.350;19.386;2022-09-09T02:43:01;15.60;99.90
21459;DHT22;10891;49.350;19.386;2022-09-09T02:45:34;15.70;99.90
21459;DHT22;10891;49.350;19.386;2022-09-09T02:48:09;15.70;99.90
21459;DHT22;10891;49.350;19.386;2022-09-09T02:50:43;15.60;99.90
21459;DHT22;10891;49.350;19.386;2022-09-09T02:53:17;15.70;99.90
21459;DHT22;10891;49.350;19.386;2022-09-09T02:55:48;15.60;99.90
21459;DHT22;10891;49.350;19.386;2022-09-09T02:58:17;15.70;99.90
21459;DHT22;10891;49.350;19.386;2022-09-09T03:00:48;15.60;99.90
21459;DHT22;10891;49.350;19.386;2022-09-09T03:03:16;15.60;99.90
21459;DHT22;10891;49.350;19.386;2022-09-09T03:05:43;15.50;99.90
21459;DHT22;10891;49.350;19.386;2022-09-09T03:08:11;15.50;99.90
21459;DHT22;10891;49.350;19.386;2022-09-09T03:10:38;15.50;99.90
21459;DHT22;10891;49.350;19.386;2022-09-09T03:13:06;15.40;99.90
21459;DHT22;10891;49.350;19.386;2022-09-09T03:15:34;15.30;99.90
21459;DHT22;10891;49.350;19.386;2022-09-09T03:18:02;15.30;99.90
21459;DHT22;10891;49.350;19.386;2022-09-09T03:20:30;15.30;99.90
21459;DHT22;10891;49.350;19.386;2022-09-09T03:22:58;15.30;99.90
21459;DHT22;10891;49.350;19.386;2022-09-09T03:25:26;15.30;99.90
21459;DHT22;10891;49.350;19.386;2022-09-09T03:27:54;15.30;99.90
21459;DHT22;10891;49.350;19.386;2022-09-09T03:30:22;15.30;99.90
21459;DHT22;10891;49.350;19.386;2022-09-09T03:32:49;15.30;99.90
21459;DHT22;10891;49.350;19.386;2022-09-09T03:35:17;15.20;99.90
21459;DHT22;10891;49.350;19.386;2022-09-09T03:37:44;15.30;99.90
21459;DHT22;10891;49.350;19.386;2022-09-09T03:40:12;15.30;99.90
21459;DHT22;10891;49.350;19.386;2022-09-09T03:42:39;15.40;99.90
21459;DHT22;10891;49.350;19.386;2022-09-09T03:45:08;15.40;99.90
21459;DHT22;10891;49.350;19.386;2022-09-09T03:47:36;15.40;99.90
21459;DHT22;10891;49.350;19.386;2022-09-09T03:50:04;15.40;99.90
21459;DHT22;10891;49.350;19.386;2022-09-09T03:52:36;15.40;99.90
21459;DHT22;10891;49.350;19.386;2022-09-09T03:55:04;15.30;99.90
21459;DHT22;10891;49.350;19.386;2022-09-09T03:57:31;15.20;99.90
21459;DHT22;10891;49.350;19.386;2022-09-09T04:00:01;15.10;99.90
21459;DHT22;10891;49.350;19.386;2022-09-09T04:02:28;15.00;99.90
21459;DHT22;10891;49.350;19.386;2022-09-09T04:04:54;14.90;99.90
21459;DHT22;10891;49.350;19.386;2022-09-09T04:07:21;14.70;99.90
21459;DHT22;10891;49.350;19.386;2022-09-09T04:09:50;14.70;99.90
21459;DHT22;10891;49.350;19.386;2022-09-09T04:12:16;14.70;99.90
21459;DHT22;10891;49.350;19.386;2022-09-09T04:14:43;14.60;99.90
21459;DHT22;10891;49.350;19.386;2022-09-09T04:17:10;14.60;99.90
21459;DHT22;10891;49.350;19.386;2022-09-09T04:19:37;14.70;99.90
21459;DHT22;10891;49.350;19.386;2022-09-09T04:22:04;14.60;99.90
21459;DHT22;10891;49.350;19.386;2022-09-09T04:24:30;14.70;99.90
21459;DHT22;10891;49.350;19.386;2022-09-09T04:26:59;14.80;99.90
21459;DHT22;10891;49.350;19.386;2022-09-09T04:29:25;14.90;99.90
21459;DHT22;10891;49.350;19.386;2022-09-09T04:31:52;14.90;99.90
21459;DHT22;10891;49.350;19.386;2022-09-09T04:34:19;15.00;99.90
21459;DHT22;10891;49.350;19.386;2022-09-09T04:36:46;15.00;99.90
21459;DHT22;10891;49.350;19.386;2022-09-09T04:39:13;14.90;99.90
21459;DHT22;10891;49.350;19.386;2022-09-09T04:41:40;14.90;99.90
21459;DHT22;10891;49.350;19.386;2022-09-09T04:44:08;14.90;99.90
21459;DHT22;10891;49.350;19.386;2022-09-09T04:46:35;15.00;99.90
21459;DHT22;10891;49.350;19.386;2022-09-09T04:49:02;15.10;99.90
21459;DHT22;10891;49.350;19.386;2022-09-09T04:51:29;15.30;99.90
21459;DHT22;10891;49.350;19.386;2022-09-09T04:53:56;15.30;99.90
21459;DHT22;10891;49.350;19.386;2022-09-09T04:56:23;15.40;99.90
21459;DHT22;10891;49.350;19.386;2022-09-09T04:58:52;15.40;99.90
21459;DHT22;10891;49.350;19.386;2022-09-09T05:01:21;15.40;99.90
21459;DHT22;10891;49.350;19.386;2022-09-09T05:03:50;15.50;99.90
21459;DHT22;10891;49.350;19.386;2022-09-09T05:06:19;15.50;99.90
21459;DHT22;10891;49.350;19.386;2022-09-09T05:08:46;15.50;99.90
21459;DHT22;10891;49.350;19.386;2022-09-09T05:11:15;15.50;99.90
21459;DHT22;10891;49.350;19.386;2022-09-09T05:13:43;15.40;99.90
21459;DHT22;10891;49.350;19.386;2022-09-09T05:16:10;15.40;99.90
21459;DHT22;10891;49.350;19.386;2022-09-09T05:18:38;15.50;99.90
21459;DHT22;10891;49.350;19.386;2022-09-09T05:21:06;15.70;99.90
21459;DHT22;10891;49.350;19.386;2022-09-09T05:23:33;15.90;99.90
21459;DHT22;10891;49.350;19.386;2022-09-09T05:26:01;16.10;99.90
21459;DHT22;10891;49.350;19.386;2022-09-09T05:28:28;16.20;99.90
21459;DHT22;10891;49.350;19.386;2022-09-09T05:30:59;16.30;99.90
21459;DHT22;10891;49.350;19.386;2022-09-09T05:33:30;16.30;99.90
21459;DHT22;10891;49.350;19.386;2022-09-09T05:36:00;16.30;99.90
21459;DHT22;10891;49.350;19.386;2022-09-09T05:38:28;16.40;99.90
21459;DHT22;10891;49.350;19.386;2022-09-09T05:40:56;16.70;99.90
21459;DHT22;10891;49.350;19.386;2022-09-09T05:43:24;16.70;99.90
21459;DHT22;10891;49.350;19.386;2022-09-09T05:45:59;16.80;99.90
21459;DHT22;10891;49.350;19.386;2022-09-09T05:48:28;17.00;99.90
21459;DHT22;10891;49.350;19.386;2022-09-09T05:50:56;17.10;99.90
21459;DHT22;10891;49.350;19.386;2022-09-09T05:53:25;17.10;99.90
21459;DHT22;10891;49.350;19.386;2022-09-09T05:55:59;17.00;99.90
21459;DHT22;10891;49.350;19.386;2022-09-09T05:58:25;16.90;99.90
21459;DHT22;10891;49.350;19.386;2022-09-09T06:00:53;16.80;99.90
21459;DHT22;10891;49.350;19.386;2022-09-09T06:03:26;17.00;99.90
21459;DHT22;10891;49.350;19.386;2022-09-09T06:05:57;17.40;99.90
21459;DHT22;10891;49.350;19.386;2022-09-09T06:08:26;18.30;99.90
21459;DHT22;10891;49.350;19.386;2022-09-09T06:11:00;19.30;99.90
21459;DHT22;10891;49.350;19.386;2022-09-09T06:13:28;19.50;99.90
21459;DHT22;10891;49.350;19.386;2022-09-09T06:15:55;19.20;99.90
21459;DHT22;10891;49.350;19.386;2022-09-09T06:18:22;19.10;99.90
21459;DHT22;10891;49.350;19.386;2022-09-09T06:20:56;18.80;99.90
21459;DHT22;10891;49.350;19.386;2022-09-09T06:23:23;18.70;99.90
21459;DHT22;10891;49.350;19.386;2022-09-09T06:25:59;18.40;99.90
21459;DHT22;10891;49.350;19.386;2022-09-09T06:28:26;18.30;99.90
21459;DHT22;10891;49.350;19.386;2022-09-09T06:31:00;18.00;99.90
21459;DHT22;10891;49.350;19.386;2022-09-09T06:33:31;17.90;99.90
21459;DHT22;10891;49.350;19.386;2022-09-09T06:36:00;17.90;99.90
21459;DHT22;10891;49.350;19.386;2022-09-09T06:38:27;18.10;99.90
21459;DHT22;10891;49.350;19.386;2022-09-09T06:40:57;18.50;99.90
21459;DHT22;10891;49.350;19.386;2022-09-09T06:43:25;19.00;99.90
21459;DHT22;10891;49.350;19.386;2022-09-09T06:45:54;19.40;99.90
21459;DHT22;10891;49.350;19.386;2022-09-09T06:48:21;19.40;99.90
21459;DHT22;10891;49.350;19.386;2022-09-09T06:50:48;19.00;99.90
21459;DHT22;10891;49.350;19.386;2022-09-09T06:53:16;18.80;99.90
21459;DHT22;10891;49.350;19.386;2022-09-09T06:55:45;18.70;99.90
21459;DHT22;10891;49.350;19.386;2022-09-09T06:58:13;18.40;99.90
21459;DHT22;10891;49.350;19.386;2022-09-09T07:00:40;18.10;99.90
21459;DHT22;10891;49.350;19.386;2022-09-09T07:03:09;18.20;99.90
21459;DHT22;10891;49.350;19.386;2022-09-09T07:05:36;18.50;99.90
21459;DHT22;10891;49.350;19.386;2022-09-09T07:08:04;18.80;99.90
21459;DHT22;10891;49.350;19.386;2022-09-09T07:10:31;19.20;99.90
21459;DHT22;10891;49.350;19.386;2022-09-09T07:12:59;19.80;99.90
21459;DHT22;10891;49.350;19.386;2022-09-09T07:15:29;20.00;99.90
21459;DHT22;10891;49.350;19.386;2022-09-09T07:18:00;19.80;99.90
21459;DHT22;10891;49.350;19.386;2022-09-09T07:20:27;19.30;99.90
21459;DHT22;10891;49.350;19.386;2022-09-09T07:22:55;19.00;99.90
21459;DHT22;10891;49.350;19.386;2022-09-09T07:25:22;18.60;99.90
21459;DHT22;10891;49.350;19.386;2022-09-09T07:27:49;18.60;99.90
21459;DHT22;10891;49.350;19.386;2022-09-09T07:30:16;18.50;99.90
21459;DHT22;10891;49.350;19.386;2022-09-09T07:32:45;18.60;99.90
21459;DHT22;10891;49.350;19.386;2022-09-09T07:35:11;18.90;99.90
21459;DHT22;10891;49.350;19.386;2022-09-09T07:37:39;19.30;99.90
21459;DHT22;10891;49.350;19.386;2022-09-09T07:40:07;19.80;99.90
21459;DHT22;10891;49.350;19.386;2022-09-09T07:42:34;20.10;99.90
21459;DHT22;10891;49.350;19.386;2022-09-09T07:45:02;20.10;99.90
21459;DHT22;10891;49.350;19.386;2022-09-09T07:47:29;20.30;99.90
21459;DHT22;10891;49.350;19.386;2022-09-09T07:49:57;20.30;99.90
21459;DHT22;10891;49.350;19.386;2022-09-09T07:52:24;20.70;99.90
21459;DHT22;10891;49.350;19.386;2022-09-09T07:54:52;21.00;99.90
21459;DHT22;10891;49.350;19.386;2022-09-09T07:57:19;20.90;99.90
21459;DHT22;10891;49.350;19.386;2022-09-09T07:59:46;20.50;99.90
21459;DHT22;10891;49.350;19.386;2022-09-09T08:02:13;20.40;99.90
21459;DHT22;10891;49.350;19.386;2022-09-09T08:04:40;20.80;99.90
21459;DHT22;10891;49.350;19.386;2022-09-09T08:07:08;21.20;99.90
21459;DHT22;10891;49.350;19.386;2022-09-09T08:09:36;21.20;99.90
21459;DHT22;10891;49.350;19.386;2022-09-09T08:12:03;21.10;99.90
21459;DHT22;10891;49.350;19.386;2022-09-09T08:14:32;21.20;99.90
21459;DHT22;10891;49.350;19.386;2022-09-09T08:16:59;21.60;99.90
21459;DHT22;10891;49.350;19.386;2022-09-09T08:19:26;21.80;99.90
21459;DHT22;10891;49.350;19.386;2022-09-09T08:21:54;22.10;99.90
21459;DHT22;10891;49.350;19.386;2022-09-09T08:24:22;22.20;99.90
21459;DHT22;10891;49.350;19.386;2022-09-09T08:26:49;22.40;99.90
21459;DHT22;10891;49.350;19.386;2022-09-09T08:29:17;22.40;99.90
21459;DHT22;10891;49.350;19.386;2022-09-09T08:31:46;22.40;99.90
21459;DHT22;10891;49.350;19.386;2022-09-09T08:34:13;22.30;99.90
21459;DHT22;10891;49.350;19.386;2022-09-09T08:36:43;22.10;99.90
21459;DHT22;10891;49.350;19.386;2022-09-09T08:39:11;21.90;99.90
21459;DHT22;10891;49.350;19.386;2022-09-09T08:45:14;22.20;99.90
21459;DHT22;10891;49.350;19.386;2022-09-09T08:47:54;22.70;99.90
21459;DHT22;10891;49.350;19.386;2022-09-09T08:50:26;22.90;99.90
21459;DHT22;10891;49.350;19.386;2022-09-09T08:52:57;22.90;99.90
21459;DHT22;10891;49.350;19.386;2022-09-09T08:55:37;23.10;99.90
21459;DHT22;10891;49.350;19.386;2022-09-09T08:58:11;23.10;99.90
21459;DHT22;10891;49.350;19.386;2022-09-09T09:00:46;23.20;99.90
21459;DHT22;10891;49.350;19.386;2022-09-09T09:03:24;23.30;99.90
21459;DHT22;10891;49.350;19.386;2022-09-09T09:06:01;23.10;99.90
21459;DHT22;10891;49.350;19.386;2022-09-09T09:08:38;22.40;99.90
21459;DHT22;10891;49.350;19.386;2022-09-09T09:11:07;22.00;99.90
21459;DHT22;10891;49.350;19.386;2022-09-09T09:13:39;22.00;99.90
21459;DHT22;10891;49.350;19.386;2022-09-09T09:16:17;21.70;99.90
21459;DHT22;10891;49.350;19.386;2022-09-09T09:18:46;21.70;99.90
21459;DHT22;10891;49.350;19.386;2022-09-09T09:21:16;22.00;99.90
21459;DHT22;10891;49.350;19.386;2022-09-09T09:23:49;22.00;99.90
21459;DHT22;10891;49.350;19.386;2022-09-09T09:26:19;21.80;99.90
21459;DHT22;10891;49.350;19.386;2022-09-09T09:28:50;22.00;99.90
21459;DHT22;10891;49.350;19.386;2022-09-09T09:31:21;21.70;99.60
21459;DHT22;10891;49.350;19.386;2022-09-09T09:33:51;21.20;99.80
21459;DHT22;10891;49.350;19.386;2022-09-09T09:36:19;21.10;99.90
21459;DHT22;10891;49.350;19.386;2022-09-09T09:38:54;21.00;99.90
21459;DHT22;10891;49.350;19.386;2022-09-09T09:41:33;20.80;99.90
21459;DHT22;10891;49.350;19.386;2022-09-09T09:44:03;20.80;99.90
21459;DHT22;10891;49.350;19.386;2022-09-09T09:46:31;21.20;99.90
21459;DHT22;10891;49.350;19.386;2022-09-09T09:48:59;21.70;99.90
21459;DHT22;10891;49.350;19.386;2022-09-09T09:51:27;22.30;99.90
21459;DHT22;10891;49.350;19.386;2022-09-09T09:54:07;22.80;98.90
21459;DHT22;10891;49.350;19.386;2022-09-09T09:56:35;23.40;98.00
21459;DHT22;10891;49.350;19.386;2022-09-09T09:59:04;23.60;96.70
21459;DHT22;10891;49.350;19.386;2022-09-09T10:01:32;23.90;96.50
21459;DHT22;10891;49.350;19.386;2022-09-09T10:04:02;23.80;96.40
21459;DHT22;10891;49.350;19.386;2022-09-09T10:06:30;23.50;96.90
21459;DHT22;10891;49.350;19.386;2022-09-09T10:08:57;23.30;97.50
21459;DHT22;10891;49.350;19.386;2022-09-09T10:11:41;23.00;96.30
21459;DHT22;10891;49.350;19.386;2022-09-09T10:14:19;23.10;96.60
21459;DHT22;10891;49.350;19.386;2022-09-09T10:16:58;23.10;96.00
21459;DHT22;10891;49.350;19.386;2022-09-09T10:19:30;22.60;96.40
21459;DHT22;10891;49.350;19.386;2022-09-09T10:22:20;22.90;97.50
21459;DHT22;10891;49.350;19.386;2022-09-09T10:25:11;23.10;96.60
21459;DHT22;10891;49.350;19.386;2022-09-09T10:27:50;23.10;97.30
21459;DHT22;10891;49.350;19.386;2022-09-09T10:30:25;23.10;95.90
21459;DHT22;10891;49.350;19.386;2022-09-09T10:33:00;22.80;96.10
21459;DHT22;10891;49.350;19.386;2022-09-09T10:35:30;22.50;96.40
21459;DHT22;10891;49.350;19.386;2022-09-09T10:38:12;22.20;97.00
21459;DHT22;10891;49.350;19.386;2022-09-09T10:40:46;22.20;96.70
21459;DHT22;10891;49.350;19.386;2022-09-09T10:43:31;22.50;98.10
21459;DHT22;10891;49.350;19.386;2022-09-09T10:46:09;22.60;96.80
21459;DHT22;10891;49.350;19.386;2022-09-09T10:48:48;22.60;97.00
21459;DHT22;10891;49.350;19.386;2022-09-09T10:51:28;22.90;96.60
21459;DHT22;10891;49.350;19.386;2022-09-09T10:54:25;23.10;96.50
21459;DHT22;10891;49.350;19.386;2022-09-09T10:56:58;22.90;96.10
21459;DHT22;10891;49.350;19.386;2022-09-09T10:59:29;22.50;96.30
21459;DHT22;10891;49.350;19.386;2022-09-09T11:02:03;22.80;96.50
21459;DHT22;10891;49.350;19.386;2022-09-09T11:04:37;22.80;95.90
21459;DHT22;10891;49.350;19.386;2022-09-09T11:07:10;22.90;95.20
21459;DHT22;10891;49.350;19.386;2022-09-09T11:09:42;23.30;94.90
21459;DHT22;10891;49.350;19.386;2022-09-09T11:12:17;23.40;94.40
21459;DHT22;10891;49.350;19.386;2022-09-09T11:14:48;23.20;94.20
21459;DHT22;10891;49.350;19.386;2022-09-09T11:17:21;23.00;94.80
21459;DHT22;10891;49.350;19.386;2022-09-09T11:19:49;23.10;94.30
21459;DHT22;10891;49.350;19.386;2022-09-09T11:22:22;23.30;94.30
21459;DHT22;10891;49.350;19.386;2022-09-09T11:24:57;23.20;93.80
21459;DHT22;10891;49.350;19.386;2022-09-09T11:27:29;23.20;94.50
21459;DHT22;10891;49.350;19.386;2022-09-09T11:30:18;23.50;94.70
21459;DHT22;10891;49.350;19.386;2022-09-09T11:33:03;23.60;91.90
21459;DHT22;10891;49.350;19.386;2022-09-09T11:35:38;23.80;92.30
21459;DHT22;10891;49.350;19.386;2022-09-09T11:38:25;24.00;91.10
21459;DHT22;10891;49.350;19.386;2022-09-09T11:40:57;23.60;91.50
21459;DHT22;10891;49.350;19.386;2022-09-09T11:43:29;23.90;92.60
21459;DHT22;10891;49.350;19.386;2022-09-09T11:45:59;24.10;91.70
21459;DHT22;10891;49.350;19.386;2022-09-09T11:48:33;24.60;92.00
21459;DHT22;10891;49.350;19.386;2022-09-09T11:51:02;25.20;91.10
21459;DHT22;10891;49.350;19.386;2022-09-09T11:53:31;25.40;88.90
21459;DHT22;10891;49.350;19.386;2022-09-09T11:56:12;25.50;89.10
21459;DHT22;10891;49.350;19.386;2022-09-09T11:58:43;25.60;89.00
21459;DHT22;10891;49.350;19.386;2022-09-09T12:04:36;25.90;87.10
21459;DHT22;10891;49.350;19.386;2022-09-09T12:07:21;25.70;87.70
21459;DHT22;10891;49.350;19.386;2022-09-09T12:09:52;25.70;89.20
21459;DHT22;10891;49.350;19.386;2022-09-09T12:12:25;25.70;89.10
21459;DHT22;10891;49.350;19.386;2022-09-09T12:14:58;25.20;89.90
21459;DHT22;10891;49.350;19.386;2022-09-09T12:17:27;24.80;89.00
21459;DHT22;10891;49.350;19.386;2022-09-09T12:20:11;24.50;90.30
21459;DHT22;10891;49.350;19.386;2022-09-09T12:22:53;24.50;92.00
21459;DHT22;10891;49.350;19.386;2022-09-09T12:25:29;24.50;90.00
21459;DHT22;10891;49.350;19.386;2022-09-09T12:28:06;24.50;90.00
21459;DHT22;10891;49.350;19.386;2022-09-09T12:30:41;24.50;87.70
21459;DHT22;10891;49.350;19.386;2022-09-09T12:33:16;24.60;90.00
21459;DHT22;10891;49.350;19.386;2022-09-09T12:35:47;24.70;88.90
21459;DHT22;10891;49.350;19.386;2022-09-09T12:38:24;24.60;87.60
21459;DHT22;10891;49.350;19.386;2022-09-09T12:40:55;24.00;90.00
21459;DHT22;10891;49.350;19.386;2022-09-09T12:43:24;23.70;90.80
21459;DHT22;10891;49.350;19.386;2022-09-09T12:45:55;23.80;91.10
21459;DHT22;10891;49.350;19.386;2022-09-09T12:48:31;23.80;90.20
21459;DHT22;10891;49.350;19.386;2022-09-09T12:51:00;23.90;90.50
21459;DHT22;10891;49.350;19.386;2022-09-09T12:53:31;23.90;90.20
21459;DHT22;10891;49.350;19.386;2022-09-09T12:56:01;24.00;90.60
21459;DHT22;10891;49.350;19.386;2022-09-09T12:58:30;24.00;90.40
21459;DHT22;10891;49.350;19.386;2022-09-09T13:00:59;23.70;88.50
21459;DHT22;10891;49.350;19.386;2022-09-09T13:03:26;23.80;90.10
21459;DHT22;10891;49.350;19.386;2022-09-09T13:05:58;24.00;89.70
21459;DHT22;10891;49.350;19.386;2022-09-09T13:08:27;24.40;89.80
21459;DHT22;10891;49.350;19.386;2022-09-09T13:10:57;24.50;90.00
21459;DHT22;10891;49.350;19.386;2022-09-09T13:13:27;24.50;88.60
21459;DHT22;10891;49.350;19.386;2022-09-09T13:15:57;24.50;87.70
21459;DHT22;10891;49.350;19.386;2022-09-09T13:18:27;24.70;89.80
21459;DHT22;10891;49.350;19.386;2022-09-09T13:20:55;24.50;88.00
21459;DHT22;10891;49.350;19.386;2022-09-09T13:23:28;24.60;88.40
21459;DHT22;10891;49.350;19.386;2022-09-09T13:25:57;24.30;89.10
21459;DHT22;10891;49.350;19.386;2022-09-09T13:28:26;24.00;90.30
21459;DHT22;10891;49.350;19.386;2022-09-09T13:30:57;23.70;90.50
21459;DHT22;10891;49.350;19.386;2022-09-09T13:33:31;23.60;91.20
21459;DHT22;10891;49.350;19.386;2022-09-09T13:36:01;23.60;91.20
21459;DHT22;10891;49.350;19.386;2022-09-09T13:38:32;23.40;90.70
21459;DHT22;10891;49.350;19.386;2022-09-09T13:41:00;23.20;90.40
21459;DHT22;10891;49.350;19.386;2022-09-09T13:43:31;23.20;91.40
21459;DHT22;10891;49.350;19.386;2022-09-09T13:46:02;23.20;91.20
21459;DHT22;10891;49.350;19.386;2022-09-09T13:48:29;23.20;91.40
21459;DHT22;10891;49.350;19.386;2022-09-09T13:50:59;23.60;91.40
21459;DHT22;10891;49.350;19.386;2022-09-09T13:53:27;24.00;90.90
21459;DHT22;10891;49.350;19.386;2022-09-09T13:55:55;24.30;92.20
21459;DHT22;10891;49.350;19.386;2022-09-09T13:58:23;24.50;93.20
21459;DHT22;10891;49.350;19.386;2022-09-09T14:00:51;24.60;92.80
21459;DHT22;10891;49.350;19.386;2022-09-09T14:03:19;24.30;92.00
21459;DHT22;10891;49.350;19.386;2022-09-09T14:05:46;24.30;92.20
21459;DHT22;10891;49.350;19.386;2022-09-09T14:08:24;24.10;92.00
21459;DHT22;10891;49.350;19.386;2022-09-09T14:10:51;24.00;93.20
21459;DHT22;10891;49.350;19.386;2022-09-09T14:13:20;24.10;93.10
21459;DHT22;10891;49.350;19.386;2022-09-09T14:15:48;24.00;91.60
21459;DHT22;10891;49.350;19.386;2022-09-09T14:18:16;23.60;91.30
21459;DHT22;10891;49.350;19.386;2022-09-09T14:20:44;23.50;92.00
21459;DHT22;10891;49.350;19.386;2022-09-09T14:23:12;23.30;93.00
21459;DHT22;10891;49.350;19.386;2022-09-09T14:25:41;23.10;93.40
21459;DHT22;10891;49.350;19.386;2022-09-09T14:28:10;22.70;94.40
21459;DHT22;10891;49.350;19.386;2022-09-09T14:30:40;22.10;95.70
21459;DHT22;10891;49.350;19.386;2022-09-09T14:33:09;21.70;96.80
21459;DHT22;10891;49.350;19.386;2022-09-09T14:35:36;21.30;96.70
21459;DHT22;10891;49.350;19.386;2022-09-09T14:38:04;21.10;97.30
21459;DHT22;10891;49.350;19.386;2022-09-09T14:40:31;20.90;98.40
21459;DHT22;10891;49.350;19.386;2022-09-09T14:42:59;20.90;98.80
21459;DHT22;10891;49.350;19.386;2022-09-09T14:45:26;21.10;97.80
21459;DHT22;10891;49.350;19.386;2022-09-09T14:47:54;21.30;98.50
21459;DHT22;10891;49.350;19.386;2022-09-09T14:50:22;21.60;97.40
21459;DHT22;10891;49.350;19.386;2022-09-09T14:52:50;22.00;97.50
21459;DHT22;10891;49.350;19.386;2022-09-09T14:55:17;22.90;96.50
21459;DHT22;10891;49.350;19.386;2022-09-09T14:57:44;23.80;95.10
21459;DHT22;10891;49.350;19.386;2022-09-09T15:00:12;24.30;93.70
21459;DHT22;10891;49.350;19.386;2022-09-09T15:02:39;23.80;94.40
21459;DHT22;10891;49.350;19.386;2022-09-09T15:05:08;23.50;95.10
21459;DHT22;10891;49.350;19.386;2022-09-09T15:07:36;22.80;95.90
21459;DHT22;10891;49.350;19.386;2022-09-09T15:10:04;22.40;95.30
21459;DHT22;10891;49.350;19.386;2022-09-09T15:12:32;22.20;95.80
21459;DHT22;10891;49.350;19.386;2022-09-09T15:15:01;21.80;96.00
21459;DHT22;10891;49.350;19.386;2022-09-09T15:17:28;21.50;96.20
21459;DHT22;10891;49.350;19.386;2022-09-09T15:19:54;21.40;96.90
21459;DHT22;10891;49.350;19.386;2022-09-09T15:22:23;21.30;97.10
21459;DHT22;10891;49.350;19.386;2022-09-09T15:24:50;21.40;97.10
21459;DHT22;10891;49.350;19.386;2022-09-09T15:27:17;21.40;97.10
21459;DHT22;10891;49.350;19.386;2022-09-09T15:29:44;21.40;97.30
21459;DHT22;10891;49.350;19.386;2022-09-09T15:32:12;21.50;97.00
21459;DHT22;10891;49.350;19.386;2022-09-09T15:34:39;21.60;97.20
21459;DHT22;10891;49.350;19.386;2022-09-09T15:37:06;21.60;97.10
21459;DHT22;10891;49.350;19.386;2022-09-09T15:39:37;21.50;97.00
21459;DHT22;10891;49.350;19.386;2022-09-09T15:42:04;21.50;97.20
21459;DHT22;10891;49.350;19.386;2022-09-09T15:44:38;21.40;97.50
21459;DHT22;10891;49.350;19.386;2022-09-09T15:47:10;21.30;97.30